Juquia, Brazil
Current Conditions -  °F | °C
As of 8:00 PM on Sunday 21 Dec 2014 (Local Time) from SBSP Reporting Station
Clear Clear  
Wind Chill: 81°   Ceiling: Unl
Heat Index: 82°   Visibility: 6mi
Dew Point: 64°   Wind: 15mph
Humidity: 58%   Direction: 330°NNW
Pressure: 29.88"   Gusts: NA
Location:  24.32°S, 47.63°W
Report Text: SBSP 212200Z 33013KT CAVOK 27/18 Q1012
Loading
Personal Weather Stations






























Interactive Weather Map New forecast layout! Learn more

10-Day Weather Forecast

Advertisements
Track Severe Weather on mobile